createdAt,value
2019-03-13T00:02:29.419Z,22.22
2019-03-13T00:05:04.948Z,22.19
2019-03-13T00:07:38.472Z,22.17
2019-03-13T00:10:11.712Z,22.15
2019-03-13T00:12:44.948Z,22.12
2019-03-13T00:15:18.171Z,22.10
2019-03-13T00:17:51.411Z,22.09
2019-03-13T00:20:24.633Z,22.05
2019-03-13T00:22:57.863Z,22.05
2019-03-13T00:25:31.093Z,22.03
2019-03-13T00:28:04.335Z,22.01
2019-03-13T00:30:37.573Z,22.00
2019-03-13T00:33:10.822Z,22.00
2019-03-13T00:35:44.042Z,21.98
2019-03-13T00:38:17.283Z,21.98
2019-03-13T00:40:50.592Z,21.93
2019-03-13T00:43:23.830Z,21.92
2019-03-13T00:45:57.057Z,21.92
2019-03-13T00:48:30.300Z,21.91
2019-03-13T00:51:03.528Z,21.89
2019-03-13T00:53:36.764Z,21.88
2019-03-13T00:56:09.990Z,21.88
2019-03-13T00:58:43.215Z,21.87
2019-03-13T01:01:16.447Z,21.87
2019-03-13T01:03:49.703Z,21.86
2019-03-13T01:06:22.936Z,21.85
2019-03-13T01:08:56.160Z,21.84
2019-03-13T01:11:29.391Z,21.84
2019-03-13T01:14:02.713Z,21.84
2019-03-13T01:16:35.932Z,21.82
2019-03-13T01:19:09.184Z,21.79
2019-03-13T01:21:42.412Z,21.80
2019-03-13T01:24:15.671Z,21.79
2019-03-13T01:26:48.896Z,21.79
2019-03-13T01:29:22.137Z,21.77
2019-03-13T01:31:55.365Z,21.77
2019-03-13T01:34:28.610Z,21.76
2019-03-13T01:37:01.845Z,21.74
2019-03-13T01:39:35.097Z,21.73
2019-03-13T01:42:08.327Z,21.70
2019-03-13T01:44:41.582Z,21.69
2019-03-13T01:47:14.808Z,21.67
2019-03-13T01:49:48.051Z,21.65
2019-03-13T01:52:21.286Z,21.64
2019-03-13T01:54:54.525Z,21.63
2019-03-13T01:57:27.750Z,21.61
2019-03-13T02:00:00.994Z,21.60
2019-03-13T02:02:35.499Z,21.57
2019-03-13T02:05:08.753Z,21.57
2019-03-13T02:07:41.974Z,21.56
2019-03-13T02:10:15.234Z,21.56
2019-03-13T02:12:48.460Z,21.54
2019-03-13T02:15:21.713Z,21.53
2019-03-13T02:17:54.936Z,21.52
2019-03-13T02:20:28.465Z,21.51
2019-03-13T02:23:01.697Z,21.50
2019-03-13T02:25:34.965Z,21.48
2019-03-13T02:28:08.190Z,21.48
2019-03-13T02:30:41.440Z,21.47
2019-03-13T02:33:14.670Z,21.45
2019-03-13T02:35:47.923Z,21.43
2019-03-13T02:38:21.148Z,21.45
2019-03-13T02:40:54.391Z,21.43
2019-03-13T02:43:28.608Z,21.42
2019-03-13T02:46:02.802Z,21.42
2019-03-13T02:48:36.055Z,21.41
2019-03-13T02:51:09.291Z,21.40
2019-03-13T02:53:42.516Z,21.41
2019-03-13T02:56:15.746Z,21.40
2019-03-13T02:58:48.991Z,21.38
2019-03-13T03:01:22.238Z,21.37
2019-03-13T03:03:55.481Z,21.38
2019-03-13T03:06:28.719Z,21.36
2019-03-13T03:09:01.949Z,21.36
2019-03-13T03:11:36.824Z,21.37
2019-03-13T03:14:10.099Z,21.36
2019-03-13T03:16:43.295Z,21.36
2019-03-13T03:19:16.518Z,21.35
2019-03-13T03:21:49.793Z,21.33
2019-03-13T03:24:22.996Z,21.32
2019-03-13T03:26:56.250Z,21.30
2019-03-13T03:29:29.476Z,21.29
2019-03-13T03:32:02.792Z,21.30
2019-03-13T03:34:36.057Z,21.28
2019-03-13T03:37:09.295Z,21.26
2019-03-13T03:39:42.528Z,21.26
2019-03-13T03:42:15.799Z,21.24
2019-03-13T03:44:49.035Z,21.23
2019-03-13T03:47:22.293Z,21.21
2019-03-13T03:49:55.519Z,21.20
2019-03-13T03:52:28.769Z,21.19
2019-03-13T03:55:02.076Z,21.18
2019-03-13T03:57:35.317Z,21.18
2019-03-13T04:00:18.880Z,21.17
2019-03-13T04:02:52.120Z,21.16
2019-03-13T04:05:25.354Z,21.16
2019-03-13T04:07:58.606Z,21.14
2019-03-13T04:10:31.827Z,21.13
2019-03-13T04:13:05.074Z,21.13
2019-03-13T04:15:38.300Z,21.13
2019-03-13T04:18:12.536Z,21.11
2019-03-13T04:20:45.779Z,21.09
2019-03-13T04:23:18.996Z,21.08
2019-03-13T04:25:52.213Z,21.08
2019-03-13T04:28:25.467Z,21.07
2019-03-13T04:30:59.663Z,21.07
2019-03-13T04:33:32.910Z,21.05
2019-03-13T04:36:06.383Z,21.04
2019-03-13T04:38:39.630Z,21.04
2019-03-13T04:41:13.829Z,21.03
2019-03-13T04:43:47.084Z,21.04
2019-03-13T04:46:38.248Z,21.03
2019-03-13T04:49:11.495Z,21.03
2019-03-13T04:51:44.718Z,21.02
2019-03-13T04:54:18.926Z,21.01
2019-03-13T04:56:52.206Z,21.01
2019-03-13T04:59:25.416Z,20.99
2019-03-13T05:01:58.651Z,21.00
2019-03-13T05:04:31.890Z,21.01
2019-03-13T05:07:05.120Z,21.00
2019-03-13T05:09:38.363Z,20.99
2019-03-13T05:12:11.599Z,20.97
2019-03-13T05:14:44.832Z,20.98
2019-03-13T05:17:18.060Z,20.98
2019-03-13T05:19:51.304Z,20.96
2019-03-13T05:22:24.531Z,20.96
2019-03-13T05:24:57.767Z,20.95
2019-03-13T05:27:30.985Z,20.95
2019-03-13T05:30:06.279Z,20.94
2019-03-13T05:32:39.482Z,20.92
2019-03-13T05:35:12.702Z,20.92
2019-03-13T05:37:45.932Z,20.92
2019-03-13T05:40:19.154Z,20.91
2019-03-13T05:42:52.381Z,20.90
2019-03-13T05:45:25.619Z,20.91
2019-03-13T05:47:58.847Z,21.03
2019-03-13T05:50:32.099Z,20.97
2019-03-13T05:53:05.332Z,20.98
2019-03-13T05:55:38.590Z,21.03
2019-03-13T05:58:11.813Z,21.05
2019-03-13T06:00:45.043Z,21.10
2019-03-13T06:03:18.266Z,21.13
2019-03-13T06:05:51.512Z,21.12
2019-03-13T06:08:24.738Z,21.12
2019-03-13T06:10:57.986Z,21.13
2019-03-13T06:13:31.207Z,21.14
2019-03-13T06:16:04.465Z,21.17
2019-03-13T06:18:37.690Z,21.17
2019-03-13T06:21:10.930Z,21.20
2019-03-13T06:23:44.151Z,21.20
2019-03-13T06:26:17.429Z,21.22
2019-03-13T06:28:50.627Z,21.22
2019-03-13T06:31:26.584Z,21.19
2019-03-13T06:33:59.802Z,21.17
2019-03-13T06:36:33.048Z,21.16
2019-03-13T06:39:06.350Z,21.15
2019-03-13T06:41:39.597Z,21.13
2019-03-13T06:44:12.824Z,21.10
2019-03-13T06:46:46.087Z,21.11
2019-03-13T06:49:19.309Z,21.08
2019-03-13T06:51:52.554Z,21.07
2019-03-13T06:54:25.786Z,21.08
2019-03-13T06:56:59.025Z,21.09
2019-03-13T06:59:32.249Z,21.07
2019-03-13T07:02:05.501Z,21.06
2019-03-13T07:04:38.730Z,21.07
2019-03-13T07:07:11.975Z,21.08
2019-03-13T07:09:45.206Z,21.10
2019-03-13T07:12:18.473Z,21.10
2019-03-13T07:14:51.699Z,21.10
2019-03-13T07:17:24.941Z,21.08
2019-03-13T07:19:58.168Z,21.08
2019-03-13T07:22:32.373Z,21.07
2019-03-13T07:25:07.137Z,21.05
2019-03-13T07:27:40.378Z,21.04
2019-03-13T07:30:13.606Z,21.02
2019-03-13T07:32:46.859Z,21.00
2019-03-13T07:35:20.089Z,21.27
2019-03-13T07:37:53.414Z,21.17
2019-03-13T07:40:26.704Z,21.20
2019-03-13T07:42:59.891Z,21.21
2019-03-13T07:45:33.110Z,21.24
2019-03-13T07:48:06.364Z,21.25
2019-03-13T07:50:39.591Z,21.28
2019-03-13T07:53:12.839Z,21.32
2019-03-13T07:55:46.068Z,21.33
2019-03-13T07:58:19.343Z,21.32
2019-03-13T08:00:52.567Z,21.31
2019-03-13T08:03:25.815Z,21.28
2019-03-13T08:05:59.049Z,21.28
2019-03-13T08:08:32.299Z,21.31
2019-03-13T08:11:05.541Z,21.35
2019-03-13T08:13:38.789Z,21.38
2019-03-13T08:16:12.015Z,21.41
2019-03-13T08:18:45.247Z,21.42
2019-03-13T08:21:18.472Z,21.40
2019-03-13T08:23:51.729Z,21.38
2019-03-13T08:26:24.957Z,21.38
2019-03-13T08:28:58.202Z,21.39
2019-03-13T08:31:31.430Z,21.37
2019-03-13T08:34:04.674Z,21.41
2019-03-13T08:36:40.424Z,21.41
2019-03-13T08:39:12.861Z,21.41
2019-03-13T08:41:46.083Z,21.43
2019-03-13T08:44:19.354Z,21.44
2019-03-13T08:46:52.564Z,21.42
2019-03-13T08:49:25.815Z,21.43
2019-03-13T08:51:59.039Z,21.42
2019-03-13T08:54:32.283Z,21.45
2019-03-13T08:57:05.501Z,21.45
2019-03-13T08:59:38.734Z,21.45
2019-03-13T09:02:11.953Z,21.46
2019-03-13T09:04:45.199Z,21.46
2019-03-13T09:07:18.675Z,21.46
2019-03-13T09:09:51.900Z,21.48
2019-03-13T09:12:25.123Z,21.47
2019-03-13T09:14:58.380Z,21.49
2019-03-13T09:17:31.610Z,21.50
2019-03-13T09:20:07.702Z,21.50
2019-03-13T09:22:40.935Z,21.51
2019-03-13T09:25:14.166Z,21.53
2019-03-13T09:27:47.462Z,21.54
2019-03-13T09:30:20.696Z,21.54
2019-03-13T09:32:53.923Z,21.56
2019-03-13T09:35:27.157Z,21.59
2019-03-13T09:38:00.385Z,21.59
2019-03-13T09:40:33.627Z,21.61
2019-03-13T09:43:06.854Z,21.60
2019-03-13T09:45:40.099Z,21.60
2019-03-13T09:48:13.318Z,21.60
2019-03-13T09:50:46.550Z,21.62
2019-03-13T09:53:20.950Z,21.63
2019-03-13T09:55:54.192Z,21.63
2019-03-13T09:58:27.423Z,21.67
2019-03-13T10:01:00.674Z,21.70
2019-03-13T10:03:33.895Z,21.96
2019-03-13T10:06:07.147Z,21.79
2019-03-13T10:08:40.379Z,21.73
2019-03-13T10:11:14.586Z,21.72
2019-03-13T10:13:47.882Z,21.73
2019-03-13T10:16:21.123Z,21.69
2019-03-13T10:18:58.364Z,21.67
2019-03-13T10:21:31.603Z,21.68
2019-03-13T10:24:04.843Z,21.69
2019-03-13T10:26:38.088Z,21.65
2019-03-13T10:29:12.293Z,21.63
2019-03-13T10:31:46.901Z,21.64
2019-03-13T10:34:20.117Z,21.63
2019-03-13T10:36:53.356Z,21.48
2019-03-13T10:39:26.584Z,21.50
2019-03-13T10:41:59.827Z,21.50
2019-03-13T10:44:33.045Z,21.51
2019-03-13T10:47:06.292Z,21.51
2019-03-13T10:49:39.516Z,21.54
2019-03-13T10:52:12.758Z,21.57
2019-03-13T10:54:45.988Z,21.60
2019-03-13T10:57:19.246Z,21.60
2019-03-13T10:59:52.478Z,21.61
2019-03-13T11:02:25.719Z,21.60
2019-03-13T11:04:58.954Z,21.62
2019-03-13T11:07:32.192Z,21.62
2019-03-13T11:10:08.224Z,21.63
2019-03-13T11:12:41.470Z,21.66
2019-03-13T11:15:14.701Z,21.67
2019-03-13T11:17:47.930Z,21.66
2019-03-13T11:20:21.162Z,21.64
2019-03-13T11:22:54.517Z,21.65
2019-03-13T11:25:27.713Z,21.66
2019-03-13T11:28:00.951Z,21.66
2019-03-13T11:30:34.182Z,21.69
2019-03-13T11:33:07.416Z,21.72
2019-03-13T11:35:40.652Z,21.74
2019-03-13T11:38:13.912Z,21.74
2019-03-13T11:40:47.138Z,21.76
2019-03-13T11:43:20.377Z,21.76
2019-03-13T11:45:53.686Z,21.75
2019-03-13T11:48:26.917Z,21.76
2019-03-13T11:51:00.140Z,21.76
2019-03-13T11:53:33.404Z,21.77
2019-03-13T11:56:06.613Z,21.77
2019-03-13T11:58:39.849Z,21.75
2019-03-13T12:01:13.081Z,21.76
2019-03-13T12:03:46.322Z,21.75
2019-03-13T12:06:19.587Z,21.73
2019-03-13T12:08:52.834Z,21.81
2019-03-13T12:11:26.121Z,21.83
2019-03-13T12:13:59.380Z,21.81
2019-03-13T12:16:32.621Z,21.81
2019-03-13T12:19:05.867Z,21.87
2019-03-13T12:21:39.094Z,21.94
2019-03-13T12:24:12.337Z,21.98
2019-03-13T12:26:45.565Z,22.03
2019-03-13T12:29:18.815Z,22.10
2019-03-13T12:31:52.048Z,22.14
2019-03-13T12:34:25.540Z,22.17
2019-03-13T12:36:58.851Z,22.20
2019-03-13T12:39:32.081Z,22.19
2019-03-13T12:42:05.326Z,22.17
2019-03-13T12:44:38.550Z,22.19
2019-03-13T12:47:11.876Z,22.20
2019-03-13T12:49:45.128Z,22.21
2019-03-13T12:52:18.373Z,22.23
2019-03-13T12:54:51.612Z,22.27
2019-03-13T12:57:24.852Z,22.31
2019-03-13T12:59:58.072Z,22.34
2019-03-13T13:02:31.334Z,22.37
2019-03-13T13:05:06.590Z,22.37
2019-03-13T13:07:39.858Z,22.37
2019-03-13T13:10:13.090Z,22.33
2019-03-13T13:12:46.341Z,22.31
2019-03-13T13:15:19.572Z,22.25
2019-03-13T13:17:52.813Z,22.24
2019-03-13T13:20:26.273Z,22.23
2019-03-13T13:22:59.518Z,22.23
2019-03-13T13:25:32.982Z,22.20
2019-03-13T13:28:06.240Z,22.21
2019-03-13T13:30:39.484Z,22.18
2019-03-13T13:33:12.795Z,22.21
2019-03-13T13:35:46.024Z,22.25
2019-03-13T13:38:19.264Z,22.27
2019-03-13T13:40:52.497Z,22.27
2019-03-13T13:43:25.737Z,22.31
2019-03-13T13:46:02.277Z,22.33
2019-03-13T13:48:35.510Z,22.30
2019-03-13T13:51:08.742Z,22.33
2019-03-13T13:53:42.010Z,22.32
2019-03-13T13:56:15.233Z,22.34
2019-03-13T13:58:48.483Z,22.34
2019-03-13T14:01:21.729Z,22.35
2019-03-13T14:03:54.986Z,22.38
2019-03-13T14:06:28.213Z,22.35
2019-03-13T14:09:01.474Z,22.33
2019-03-13T14:11:36.341Z,22.33
2019-03-13T14:14:09.610Z,22.45
2019-03-13T14:16:42.868Z,22.53
2019-03-13T14:19:16.093Z,22.59
2019-03-13T14:21:49.330Z,22.62
2019-03-13T14:24:22.579Z,22.60
2019-03-13T14:26:55.817Z,22.56
2019-03-13T14:29:29.059Z,22.56
2019-03-13T14:32:03.262Z,22.58
2019-03-13T14:34:36.507Z,22.56
2019-03-13T14:37:09.810Z,22.57
2019-03-13T14:39:42.994Z,22.52
2019-03-13T14:42:16.224Z,22.48
2019-03-13T14:44:49.481Z,22.44
2019-03-13T14:47:22.713Z,22.41
2019-03-13T14:49:55.972Z,22.39
2019-03-13T14:52:29.215Z,22.41
2019-03-13T14:55:02.926Z,22.40
2019-03-13T14:57:36.158Z,22.38
2019-03-13T15:00:21.636Z,22.37
2019-03-13T15:02:54.865Z,22.36
2019-03-13T15:05:28.115Z,22.38
2019-03-13T15:08:01.353Z,22.39
2019-03-13T15:10:34.598Z,22.40
2019-03-13T15:13:07.833Z,22.42
2019-03-13T15:15:41.080Z,22.44
2019-03-13T15:18:14.315Z,22.48
2019-03-13T15:20:47.591Z,22.50
2019-03-13T15:23:20.839Z,22.51
2019-03-13T15:25:54.068Z,22.46
2019-03-13T15:28:27.301Z,22.47
2019-03-13T15:31:00.547Z,22.46
2019-03-13T15:33:33.777Z,22.45
2019-03-13T15:36:07.087Z,22.46
2019-03-13T15:38:40.285Z,22.45
2019-03-13T15:41:13.535Z,22.54
2019-03-13T15:43:52.233Z,22.57
2019-03-13T15:46:25.818Z,22.59
2019-03-13T15:48:59.310Z,22.60
2019-03-13T15:51:32.562Z,22.60
2019-03-13T15:54:05.801Z,22.60
2019-03-13T15:56:39.081Z,22.61
2019-03-13T15:59:12.326Z,22.63
2019-03-13T16:01:45.594Z,22.63
2019-03-13T19:25:04.908Z,19.90
2019-03-13T19:27:41.801Z,20.11
2019-03-13T19:30:32.055Z,20.37
2019-03-13T19:33:05.519Z,20.54
2019-03-13T19:35:42.338Z,20.70
2019-03-13T19:38:16.517Z,20.81
2019-03-13T19:40:50.017Z,20.91
2019-03-13T19:43:24.000Z,20.99
2019-03-13T19:46:01.651Z,21.06
2019-03-13T19:48:35.069Z,21.09
2019-03-13T19:51:09.020Z,21.13
2019-03-13T19:53:50.214Z,21.17
2019-03-13T19:56:24.809Z,21.20
2019-03-13T19:58:58.346Z,21.19
2019-03-13T20:01:31.911Z,21.26
2019-03-13T20:04:05.748Z,21.24
2019-03-13T20:06:42.528Z,21.26
2019-03-13T20:09:16.327Z,21.25
2019-03-13T20:11:49.768Z,21.25
2019-03-13T20:14:23.185Z,21.27
2019-03-13T20:16:58.566Z,21.32
2019-03-13T20:19:32.054Z,21.40
2019-03-13T20:22:05.538Z,21.46
2019-03-13T20:24:39.140Z,21.53
2019-03-13T20:27:13.052Z,21.61
2019-03-13T20:29:46.980Z,21.71
2019-03-13T20:32:20.622Z,21.81
2019-03-13T20:34:54.040Z,21.94
2019-03-13T20:37:27.875Z,22.06
2019-03-13T20:40:01.474Z,22.16
2019-03-13T20:42:36.624Z,22.31
2019-03-13T20:45:15.836Z,22.46
2019-03-13T20:47:49.327Z,22.61
2019-03-13T20:50:36.067Z,22.77
2019-03-13T20:52:58.844Z,22.91
2019-03-13T20:55:32.268Z,23.06
2019-03-13T20:58:05.676Z,23.23
2019-03-13T21:00:39.335Z,23.39
2019-03-13T21:03:13.332Z,23.55
2019-03-13T21:05:47.672Z,23.72
2019-03-13T21:08:21.184Z,23.85
2019-03-13T21:10:54.703Z,23.93
2019-03-13T21:13:29.864Z,24.02
2019-03-13T21:16:04.286Z,24.08
2019-03-13T21:18:37.675Z,24.18
2019-03-13T21:21:11.431Z,24.25
2019-03-13T21:23:44.820Z,24.33
2019-03-13T21:26:18.176Z,24.36
2019-03-13T21:28:51.602Z,24.40
2019-03-13T21:31:25.158Z,24.42
2019-03-13T21:33:58.628Z,24.45
2019-03-13T21:36:32.130Z,24.44
2019-03-13T21:39:05.600Z,24.44
2019-03-13T21:41:40.561Z,24.42
2019-03-13T21:44:14.537Z,24.40
2019-03-13T21:46:48.021Z,24.41
2019-03-13T21:49:21.782Z,24.37
2019-03-13T21:51:55.095Z,24.35
2019-03-13T21:54:30.083Z,24.30
2019-03-13T21:57:03.590Z,24.28
2019-03-13T21:59:37.025Z,24.24
2019-03-13T22:02:12.042Z,24.19
2019-03-13T22:04:45.817Z,24.09
2019-03-13T22:07:19.531Z,24.04
2019-03-13T22:09:58.499Z,24.01
2019-03-13T22:12:30.846Z,23.95
2019-03-13T22:15:21.339Z,23.91
2019-03-13T22:17:55.132Z,23.90
2019-03-13T22:20:28.619Z,23.85
2019-03-13T22:23:02.232Z,23.79
2019-03-13T22:25:35.858Z,23.74
2019-03-13T22:28:09.333Z,23.70
2019-03-13T22:30:42.789Z,23.67
2019-03-13T22:33:16.117Z,23.61
2019-03-13T22:35:49.782Z,23.56
2019-03-13T22:38:23.195Z,23.48
2019-03-13T22:41:01.174Z,23.47
2019-03-13T22:43:35.053Z,23.37
2019-03-13T22:46:08.523Z,23.38
2019-03-13T22:48:42.139Z,23.34
2019-03-13T22:51:16.216Z,23.31
2019-03-13T22:53:50.307Z,23.25
2019-03-13T22:56:25.449Z,23.19
2019-03-13T22:59:00.006Z,23.22
2019-03-13T23:01:33.966Z,23.20
2019-03-13T23:04:07.926Z,23.23
2019-03-13T23:06:41.954Z,23.21
2019-03-13T23:09:15.342Z,23.24
2019-03-13T23:11:49.425Z,23.25
2019-03-13T23:14:23.644Z,23.23
2019-03-13T23:16:57.204Z,23.22
2019-03-13T23:19:30.700Z,23.23
2019-03-13T23:22:04.090Z,23.17
2019-03-13T23:24:38.135Z,23.17
2019-03-13T23:27:12.133Z,23.14
2019-03-13T23:29:45.440Z,23.12
2019-03-13T23:32:18.878Z,23.09
2019-03-13T23:34:52.273Z,23.07
2019-03-13T23:37:25.813Z,23.03
2019-03-13T23:39:59.195Z,23.01
2019-03-13T23:42:32.730Z,23.00
2019-03-13T23:45:08.777Z,22.95
2019-03-13T23:47:42.340Z,22.95
2019-03-13T23:50:15.905Z,22.93
2019-03-13T23:52:49.647Z,22.91
2019-03-13T23:55:23.361Z,22.86
2019-03-13T23:57:57.049Z,22.83
